createdAt,value
2022-09-20T00:01:10.498Z,101767.84
2022-09-20T00:04:08.491Z,101779.03
2022-09-20T00:07:06.125Z,101778.75
2022-09-20T00:10:02.920Z,101790.13
2022-09-20T00:13:00.264Z,101787.28
2022-09-20T00:15:57.019Z,101787.44
2022-09-20T00:18:55.484Z,101783.47
2022-09-20T00:21:53.188Z,101784.81
2022-09-20T00:24:49.973Z,101790.47
2022-09-20T00:27:47.725Z,101790.63
2022-09-20T00:30:44.757Z,101790.69
2022-09-20T00:34:00.712Z,101789.59
2022-09-20T00:36:58.052Z,101788.00
2022-09-20T00:39:55.298Z,101782.56
2022-09-20T00:42:52.434Z,101782.72
2022-09-20T00:45:50.004Z,101789.25
2022-09-20T00:48:47.156Z,101789.41
2022-09-20T00:51:47.176Z,101784.72
2022-09-20T00:54:45.044Z,101787.34
2022-09-20T00:57:43.286Z,101790.09
2022-09-20T01:00:40.065Z,101794.47
2022-09-20T01:03:37.043Z,101788.00
2022-09-20T01:06:34.263Z,101792.44
2022-09-20T01:09:31.204Z,101791.28
2022-09-20T01:12:30.477Z,101794.84
2022-09-20T01:15:28.004Z,101797.69
2022-09-20T01:18:25.394Z,101791.50
2022-09-20T01:21:22.323Z,101792.56
2022-09-20T01:24:43.114Z,101786.84
2022-09-20T01:27:49.427Z,101797.22
2022-09-20T01:31:04.264Z,101802.75
2022-09-20T01:34:02.333Z,101797.16
2022-09-20T01:37:11.836Z,101799.78
2022-09-20T01:40:12.164Z,101797.00
2022-09-20T01:43:20.430Z,101802.69
2022-09-20T01:46:31.540Z,101806.94
2022-09-20T01:49:38.728Z,101813.09
2022-09-20T01:53:06.767Z,101802.97
2022-09-20T01:56:07.012Z,101808.59
2022-09-20T01:59:23.707Z,101815.34
2022-09-20T02:02:53.120Z,101815.91
2022-09-20T02:06:04.194Z,101815.66
2022-09-20T02:09:13.878Z,101812.66
2022-09-20T02:12:42.114Z,101809.84
2022-09-20T02:15:51.277Z,101820.13
2022-09-20T02:19:07.903Z,101815.03
2022-09-20T02:22:30.088Z,101815.72
2022-09-20T02:25:33.479Z,101809.66
2022-09-20T02:28:52.189Z,101812.66
2022-09-20T02:32:07.704Z,101802.78
2022-09-20T02:35:17.265Z,101802.22
2022-09-20T02:38:32.464Z,101807.84
2022-09-20T02:41:46.960Z,101807.00
2022-09-20T02:44:48.312Z,101805.28
2022-09-20T02:47:45.327Z,101806.97
2022-09-20T02:50:59.909Z,101801.78
2022-09-20T02:54:13.867Z,101808.09
2022-09-20T02:57:43.414Z,101806.56
2022-09-20T03:00:54.115Z,101803.03
2022-09-20T03:04:22.502Z,101810.72
2022-09-20T03:07:19.191Z,101815.81
2022-09-20T03:10:40.695Z,101806.88
2022-09-20T03:14:12.486Z,101809.34
2022-09-20T03:17:31.484Z,101812.19
2022-09-20T03:20:46.685Z,101813.75
2022-09-20T03:23:59.368Z,101813.25
2022-09-20T03:27:34.826Z,101822.78
2022-09-20T03:30:49.383Z,101812.16
2022-09-20T03:34:13.951Z,101814.75
2022-09-20T03:37:13.797Z,101821.84
2022-09-20T03:40:29.753Z,101830.00
2022-09-20T03:43:46.069Z,101819.38
2022-09-20T03:46:47.064Z,101826.19
2022-09-20T03:49:57.513Z,101828.47
2022-09-20T03:53:16.425Z,101827.31
2022-09-20T03:56:46.922Z,101830.78
2022-09-20T03:59:46.985Z,101833.06
2022-09-20T04:02:59.574Z,101831.50
2022-09-20T04:06:20.803Z,101841.84
2022-09-20T04:10:03.606Z,101840.63
2022-09-20T04:13:22.075Z,101835.25
2022-09-20T04:16:55.783Z,101841.22
2022-09-20T04:19:57.052Z,101852.16
2022-09-20T04:22:54.528Z,101838.81
2022-09-20T04:25:51.403Z,101845.25
2022-09-20T04:29:22.915Z,101847.94
2022-09-20T04:32:24.409Z,101842.84
2022-09-20T04:36:04.783Z,101848.22
2022-09-20T04:39:20.453Z,101845.88
2022-09-20T04:42:42.844Z,101829.47
2022-09-20T04:46:24.494Z,101835.63
2022-09-20T04:49:45.727Z,101832.97
2022-09-20T04:53:04.916Z,101831.75
2022-09-20T04:56:35.840Z,101845.28
2022-09-20T04:59:55.600Z,101842.75
2022-09-20T05:03:14.974Z,101849.59
2022-09-20T05:06:14.422Z,101856.22
2022-09-20T05:09:19.789Z,101853.34
2022-09-20T05:12:17.353Z,101855.53
2022-09-20T05:15:36.424Z,101865.75
2022-09-20T05:18:54.661Z,101866.25
2022-09-20T05:22:06.671Z,101867.09
2022-09-20T05:25:10.186Z,101861.16
2022-09-20T05:28:12.890Z,101876.97
2022-09-20T05:31:40.555Z,101880.44
2022-09-20T05:34:52.091Z,101886.38
2022-09-20T05:41:42.198Z,101883.75
2022-09-20T05:45:30.833Z,101890.25
2022-09-20T05:48:58.382Z,101896.38
2022-09-20T05:52:14.592Z,101888.28
2022-09-20T05:55:21.995Z,101899.56
2022-09-20T05:58:40.537Z,101894.72
2022-09-20T06:01:41.423Z,101900.06
2022-09-20T06:05:15.877Z,101908.34
2022-09-20T06:08:13.363Z,101910.84
2022-09-20T06:11:31.488Z,101907.59
2022-09-20T06:15:02.083Z,101910.50
2022-09-20T06:18:11.646Z,101917.25
2022-09-20T06:21:16.718Z,101909.47
2022-09-20T06:24:32.703Z,101919.91
2022-09-20T06:27:34.325Z,101917.44
2022-09-20T06:30:34.784Z,101928.69
2022-09-20T06:33:32.511Z,101927.69
2022-09-20T06:36:52.886Z,101929.19
2022-09-20T06:40:33.221Z,101928.41
2022-09-20T06:43:31.603Z,101928.47
2022-09-20T06:46:29.585Z,101925.59
2022-09-20T06:49:29.185Z,101931.19
2022-09-20T06:52:26.008Z,101934.31
2022-09-20T06:55:29.366Z,101928.78
2022-09-20T06:58:26.562Z,101926.78
2022-09-20T07:01:30.187Z,101934.03
2022-09-20T07:04:27.182Z,101931.47
2022-09-20T07:07:25.461Z,101931.09
2022-09-20T07:10:22.053Z,101939.69
2022-09-20T07:13:20.912Z,101952.69
2022-09-20T07:16:18.809Z,101942.44
2022-09-20T07:19:16.538Z,101957.69
2022-09-20T07:22:14.526Z,101957.81
2022-09-20T07:25:11.512Z,101964.31
2022-09-20T07:28:08.498Z,101962.78
2022-09-20T07:31:05.454Z,101961.94
2022-09-20T07:34:02.366Z,101957.00
2022-09-20T07:37:02.581Z,101962.31
2022-09-20T07:39:59.732Z,101960.72
2022-09-20T07:42:57.237Z,101971.81
2022-09-20T07:45:55.975Z,101976.56
2022-09-20T07:48:53.456Z,101972.22
2022-09-20T07:51:50.362Z,101978.09
2022-09-20T07:54:48.522Z,101982.59
2022-09-20T07:57:45.654Z,101992.84
2022-09-20T08:00:42.577Z,101986.81
2022-09-20T08:03:39.919Z,101982.66
2022-09-20T08:06:41.305Z,101994.28
2022-09-20T08:09:38.605Z,101989.44
2022-09-20T08:16:01.825Z,102000.38
2022-09-20T08:19:00.916Z,102012.94
2022-09-20T08:21:58.397Z,102010.34
2022-09-20T08:24:55.802Z,102012.72
2022-09-20T08:27:54.089Z,102020.00
2022-09-20T08:30:51.410Z,102016.41
2022-09-20T08:33:48.757Z,102022.28
2022-09-20T08:36:51.856Z,102022.13
2022-09-20T08:39:58.169Z,102026.69
2022-09-20T08:42:55.416Z,102025.88
2022-09-20T08:45:52.424Z,102021.72
2022-09-20T08:48:50.044Z,102020.94
2022-09-20T08:51:50.655Z,102020.56
2022-09-20T08:54:47.507Z,102025.66
2022-09-20T08:57:46.562Z,102025.94
2022-09-20T09:00:44.387Z,102017.88
2022-09-20T09:03:41.304Z,102022.84
2022-09-20T09:06:38.902Z,102020.22
2022-09-20T09:09:38.120Z,102023.50
2022-09-20T09:12:35.641Z,102026.28
2022-09-20T09:15:36.793Z,102015.97
2022-09-20T09:18:35.690Z,102011.47
2022-09-20T09:21:32.444Z,102019.25
2022-09-20T09:24:31.453Z,102017.66
2022-09-20T09:27:28.490Z,102031.75
2022-09-20T09:30:35.761Z,102023.91
2022-09-20T09:33:34.347Z,102023.47
2022-09-20T09:36:33.397Z,102034.38
2022-09-20T09:39:32.657Z,102026.75
2022-09-20T09:42:29.803Z,102016.81
2022-09-20T09:45:38.592Z,102025.19
2022-09-20T09:48:38.595Z,102020.03
2022-09-20T09:51:37.075Z,102026.44
2022-09-20T09:54:36.620Z,102026.13
2022-09-20T09:57:55.792Z,102031.78
2022-09-20T10:00:52.683Z,102024.47
2022-09-20T10:04:16.551Z,102025.06
2022-09-20T10:07:21.918Z,102010.56
2022-09-20T10:10:53.360Z,102015.59
2022-09-20T10:14:00.507Z,102009.72
2022-09-20T10:17:19.175Z,102010.50
2022-09-20T10:20:31.476Z,102004.44
2022-09-20T10:24:01.945Z,102003.75
2022-09-20T10:27:13.248Z,102014.06
2022-09-20T10:30:22.501Z,102007.47
2022-09-20T10:33:42.570Z,102000.50
2022-09-20T10:36:48.460Z,102005.09
2022-09-20T10:39:45.493Z,102009.41
2022-09-20T10:43:08.370Z,101998.28
2022-09-20T10:46:31.232Z,101996.13
2022-09-20T10:49:53.034Z,102006.47
2022-09-20T10:52:56.827Z,101995.97
2022-09-20T10:56:02.421Z,101998.66
2022-09-20T10:59:33.404Z,101993.38
2022-09-20T11:02:49.948Z,101998.41
2022-09-20T11:06:17.594Z,102010.47
2022-09-20T11:09:17.702Z,102015.03
2022-09-20T11:12:29.029Z,102015.91
2022-09-20T11:15:47.257Z,102026.88
2022-09-20T11:18:52.831Z,102026.41
2022-09-20T11:22:03.388Z,102029.47
2022-09-20T11:25:11.673Z,102024.75
2022-09-20T11:28:13.791Z,102045.34
2022-09-20T11:31:30.087Z,102051.72
2022-09-20T11:34:32.484Z,102055.72
2022-09-20T11:37:34.257Z,102060.91
2022-09-20T11:40:56.561Z,102063.75
2022-09-20T11:43:55.475Z,102067.78
2022-09-20T11:46:56.504Z,102073.25
2022-09-20T11:50:21.710Z,102067.28
2022-09-20T11:53:39.773Z,102064.81
2022-09-20T11:56:36.905Z,102064.72
2022-09-20T11:59:36.517Z,102063.16
2022-09-20T12:02:52.582Z,102057.97
2022-09-20T12:06:05.906Z,102066.63
2022-09-20T12:09:23.747Z,102064.75
2022-09-20T12:12:39.793Z,102062.72
2022-09-20T12:15:39.254Z,102066.97
2022-09-20T12:18:46.833Z,102070.91
2022-09-20T12:21:58.705Z,102063.19
2022-09-20T12:25:37.864Z,102072.19
2022-09-20T12:28:37.874Z,102061.28
2022-09-20T12:31:38.385Z,102059.28
2022-09-20T12:34:36.223Z,102069.22
2022-09-20T12:37:33.812Z,102054.31
2022-09-20T12:40:30.973Z,102056.88
2022-09-20T12:43:28.394Z,102055.44
2022-09-20T12:46:43.037Z,102058.31
2022-09-20T12:50:05.283Z,102063.16
2022-09-20T12:53:07.176Z,102072.81
2022-09-20T12:56:06.173Z,102079.41
2022-09-20T12:59:07.511Z,102077.78
2022-09-20T13:02:43.114Z,102070.72
2022-09-20T13:05:52.700Z,102065.34
2022-09-20T13:08:58.821Z,102072.00
2022-09-20T13:11:56.966Z,102070.25
2022-09-20T13:14:53.575Z,102077.97
2022-09-20T13:17:52.144Z,102067.34
2022-09-20T13:20:50.580Z,102072.81
2022-09-20T13:23:51.449Z,102070.69
2022-09-20T13:26:49.402Z,102064.56
2022-09-20T13:29:46.782Z,102073.59
2022-09-20T13:32:43.777Z,102071.03
2022-09-20T13:35:41.866Z,102066.06
2022-09-20T13:38:38.722Z,102072.31
2022-09-20T13:41:36.448Z,102070.66
2022-09-20T13:44:34.421Z,102064.38
2022-09-20T13:47:32.230Z,102061.66
2022-09-20T13:50:33.145Z,102071.25
2022-09-20T13:53:41.800Z,102068.53
2022-09-20T13:56:40.865Z,102063.78
2022-09-20T13:59:42.436Z,102070.91
2022-09-20T14:02:40.295Z,102068.66
2022-09-20T14:05:37.618Z,102066.63
2022-09-20T14:08:40.774Z,102063.50
2022-09-20T14:11:37.571Z,102066.16
2022-09-20T14:14:35.758Z,102071.75
2022-09-20T14:17:32.770Z,102063.91
2022-09-20T14:20:31.278Z,102077.41
2022-09-20T14:23:29.568Z,102075.75
2022-09-20T14:26:39.722Z,102080.03
2022-09-20T14:29:40.502Z,102082.88
2022-09-20T14:32:50.949Z,102076.47
2022-09-20T14:35:51.324Z,102087.31
2022-09-20T14:38:50.728Z,102078.88
2022-09-20T14:41:47.724Z,102079.44
2022-09-20T14:44:44.667Z,102070.47
2022-09-20T14:47:57.150Z,102067.28
2022-09-20T14:51:11.798Z,102069.72
2022-09-20T14:54:08.451Z,102067.97
2022-09-20T14:57:06.109Z,102079.78
2022-09-20T15:00:16.257Z,102065.47
2022-09-20T15:03:16.130Z,102062.31
2022-09-20T15:06:13.636Z,102060.00
2022-09-20T15:09:13.538Z,102073.31
2022-09-20T15:12:18.572Z,102062.13
2022-09-20T15:15:20.100Z,102065.25
2022-09-20T15:18:22.689Z,102073.47
2022-09-20T15:21:19.887Z,102069.59
2022-09-20T15:24:18.900Z,102076.91
2022-09-20T15:27:16.346Z,102076.56
2022-09-20T15:30:16.327Z,102091.13
2022-09-20T15:33:14.100Z,102094.31
2022-09-20T15:36:11.033Z,102087.03
2022-09-20T15:39:08.685Z,102097.28
2022-09-20T15:42:05.827Z,102100.75
2022-09-20T15:45:03.118Z,102105.94
2022-09-20T15:47:59.905Z,102098.84
2022-09-20T15:51:04.200Z,102098.13
2022-09-20T15:54:03.523Z,102090.78
2022-09-20T15:57:00.892Z,102091.69
2022-09-20T15:59:58.832Z,102087.56
2022-09-20T16:02:56.012Z,102096.22
2022-09-20T16:06:04.657Z,102101.28
2022-09-20T16:09:01.801Z,102092.47
2022-09-20T16:12:00.334Z,102092.81
2022-09-20T16:14:57.749Z,102109.31
2022-09-20T16:18:13.479Z,102109.31
2022-09-20T16:21:12.542Z,102113.38
2022-09-20T16:24:10.281Z,102120.69
2022-09-20T16:27:08.749Z,102113.91
2022-09-20T16:30:06.267Z,102113.13
2022-09-20T16:33:05.635Z,102119.94
2022-09-20T16:36:02.700Z,102118.50
2022-09-20T16:39:00.182Z,102125.22
2022-09-20T16:42:04.903Z,102128.34
2022-09-20T16:45:01.632Z,102125.28
2022-09-20T16:47:59.689Z,102134.19
2022-09-20T16:50:57.599Z,102140.38
2022-09-20T16:53:55.772Z,102132.19
2022-09-20T16:56:53.257Z,102132.06
2022-09-20T16:59:51.994Z,102134.09
2022-09-20T17:02:52.961Z,102132.66
2022-09-20T17:05:51.338Z,102143.47
2022-09-20T17:08:58.794Z,102134.19
2022-09-20T17:11:57.014Z,102138.72
2022-09-20T17:14:54.202Z,102140.63
2022-09-20T17:17:52.402Z,102148.34
2022-09-20T17:20:50.067Z,102146.09
2022-09-20T17:23:50.982Z,102142.31
2022-09-20T17:26:48.992Z,102143.06
2022-09-20T17:29:47.681Z,102152.94
2022-09-20T17:32:48.162Z,102166.56
2022-09-20T17:35:52.235Z,102162.31
2022-09-20T17:38:53.752Z,102174.13
2022-09-20T17:41:50.981Z,102179.50
2022-09-20T17:44:47.987Z,102180.19
2022-09-20T17:47:45.740Z,102181.25
2022-09-20T17:50:44.161Z,102190.28
2022-09-20T17:53:40.873Z,102186.22
2022-09-20T17:56:38.813Z,102190.03
2022-09-20T17:59:36.685Z,102190.97
2022-09-20T18:02:35.210Z,102197.31
2022-09-20T18:05:31.776Z,102196.06
2022-09-20T18:08:29.011Z,102212.66
2022-09-20T18:11:37.078Z,102208.59
2022-09-20T18:14:34.086Z,102217.19
2022-09-20T18:17:31.406Z,102210.00
2022-09-20T18:20:29.880Z,102210.94
2022-09-20T18:23:27.478Z,102205.97
2022-09-20T18:26:27.548Z,102207.28
2022-09-20T18:29:25.122Z,102220.84
2022-09-20T18:32:22.248Z,102229.53
2022-09-20T18:35:19.262Z,102216.59
2022-09-20T18:38:17.915Z,102221.44
2022-09-20T18:41:14.924Z,102227.81
2022-09-20T18:44:14.464Z,102227.03
2022-09-20T18:47:11.986Z,102228.81
2022-09-20T18:50:13.389Z,102238.06
2022-09-20T18:53:10.892Z,102229.88
2022-09-20T18:56:09.566Z,102237.78
2022-09-20T18:59:08.993Z,102239.69
2022-09-20T19:02:21.347Z,102239.53
2022-09-20T19:05:24.280Z,102242.22
2022-09-20T19:08:34.241Z,102245.72
2022-09-20T19:11:42.936Z,102243.63
2022-09-20T19:15:01.890Z,102255.72
2022-09-20T19:18:13.857Z,102258.94
2022-09-20T19:21:37.525Z,102262.25
2022-09-20T19:24:48.068Z,102275.41
2022-09-20T19:27:45.502Z,102261.78
2022-09-20T19:30:43.507Z,102264.81
2022-09-20T19:33:41.846Z,102271.66
2022-09-20T19:36:49.495Z,102272.66
2022-09-20T19:40:04.373Z,102275.31
2022-09-20T19:43:36.890Z,102274.47
2022-09-20T19:46:33.864Z,102274.16
2022-09-20T19:49:59.884Z,102283.84
2022-09-20T19:52:57.525Z,102289.31
2022-09-20T19:55:57.520Z,102291.03
2022-09-20T19:58:56.360Z,102285.72
2022-09-20T20:01:54.634Z,102292.06
2022-09-20T20:04:52.841Z,102291.69
2022-09-20T20:08:21.538Z,102290.94
2022-09-20T20:11:34.341Z,102294.34
2022-09-20T20:14:36.800Z,102289.19
2022-09-20T20:17:46.226Z,102300.19
2022-09-20T20:20:46.246Z,102306.28
2022-09-20T20:23:49.201Z,102304.09
2022-09-20T20:26:45.995Z,102303.88
2022-09-20T20:29:43.180Z,102312.44
2022-09-20T20:32:42.359Z,102312.66
2022-09-20T20:35:40.113Z,102314.16
2022-09-20T20:38:37.698Z,102312.78
2022-09-20T20:41:35.159Z,102332.19
2022-09-20T20:44:35.048Z,102319.69
2022-09-20T20:47:34.396Z,102325.13
2022-09-20T20:50:33.951Z,102321.34
2022-09-20T20:53:36.003Z,102316.16
2022-09-20T20:56:33.252Z,102322.53
2022-09-20T20:59:30.234Z,102326.38
2022-09-20T21:02:27.198Z,102322.34
2022-09-20T21:05:24.488Z,102335.03
2022-09-20T21:08:22.311Z,102330.53
2022-09-20T21:11:23.189Z,102327.47
2022-09-20T21:14:19.751Z,102326.47
2022-09-20T21:17:17.241Z,102334.84
2022-09-20T21:20:14.096Z,102343.31
2022-09-20T21:23:11.078Z,102352.06
2022-09-20T21:26:09.306Z,102348.94
2022-09-20T21:29:07.801Z,102351.41
2022-09-20T21:32:05.174Z,102351.66
2022-09-20T21:35:02.002Z,102356.63
2022-09-20T21:37:58.942Z,102364.19
2022-09-20T21:41:06.509Z,102356.75
2022-09-20T21:44:04.828Z,102361.13
2022-09-20T21:47:02.214Z,102364.63
2022-09-20T21:49:59.181Z,102361.53
2022-09-20T21:52:56.026Z,102368.41
2022-09-20T21:56:00.092Z,102372.56
2022-09-20T21:58:58.007Z,102377.28
2022-09-20T22:01:55.250Z,102370.53
2022-09-20T22:04:51.911Z,102370.22
2022-09-20T22:07:49.463Z,102372.72
2022-09-20T22:10:55.477Z,102376.41
2022-09-20T22:13:52.803Z,102384.22
2022-09-20T22:16:51.343Z,102379.94
2022-09-20T22:19:48.100Z,102384.22
2022-09-20T22:22:45.090Z,102383.31
2022-09-20T22:25:42.533Z,102383.44
2022-09-20T22:28:40.541Z,102392.31
2022-09-20T22:31:44.690Z,102388.56
2022-09-20T22:34:42.360Z,102387.63
2022-09-20T22:37:39.359Z,102387.75
2022-09-20T22:40:36.247Z,102382.91
2022-09-20T22:43:34.199Z,102382.25
2022-09-20T22:46:31.594Z,102391.41
2022-09-20T22:49:29.554Z,102382.16
2022-09-20T22:52:27.361Z,102385.38
2022-09-20T22:55:24.358Z,102379.94
2022-09-20T22:58:20.855Z,102379.06
2022-09-20T23:01:26.019Z,102379.63
2022-09-20T23:04:23.567Z,102386.56
2022-09-20T23:07:20.873Z,102381.03
2022-09-20T23:10:18.430Z,102378.41
2022-09-20T23:13:15.328Z,102383.97
2022-09-20T23:16:13.203Z,102386.75
2022-09-20T23:19:10.458Z,102388.66
2022-09-20T23:22:07.141Z,102388.09
2022-09-20T23:25:04.518Z,102392.03
2022-09-20T23:28:01.943Z,102391.28
2022-09-20T23:31:07.750Z,102394.94
2022-09-20T23:34:06.158Z,102387.91
2022-09-20T23:37:02.876Z,102385.78
2022-09-20T23:40:00.857Z,102390.00
2022-09-20T23:42:57.974Z,102389.28
2022-09-20T23:45:55.366Z,102393.97
2022-09-20T23:48:52.740Z,102389.81
2022-09-20T23:51:50.097Z,102386.06
2022-09-20T23:54:47.095Z,102392.09
2022-09-20T23:57:44.327Z,102390.03
